createdAt,value
2017-12-25T00:01:55.013Z,2.60
2017-12-25T00:04:22.518Z,1.90
2017-12-25T00:06:50.023Z,3.10
2017-12-25T00:09:17.515Z,2.17
2017-12-25T00:11:45.779Z,4.40
2017-12-25T00:14:13.260Z,2.30
2017-12-25T00:16:40.783Z,2.97
2017-12-25T00:19:08.275Z,2.20
2017-12-25T00:21:35.783Z,2.37
2017-12-25T00:24:04.032Z,2.03
2017-12-25T00:26:31.535Z,1.77
2017-12-25T00:28:59.811Z,1.87
2017-12-25T00:31:27.308Z,1.70
2017-12-25T00:33:55.554Z,1.97
2017-12-25T00:36:23.060Z,2.57
2017-12-25T00:38:51.304Z,2.40
2017-12-25T00:41:18.813Z,2.33
2017-12-25T00:43:47.071Z,2.60
2017-12-25T00:46:14.599Z,3.00
2017-12-25T00:48:42.110Z,2.27
2017-12-25T00:51:09.596Z,2.27
2017-12-25T00:53:37.111Z,3.27
2017-12-25T00:56:04.603Z,2.80
2017-12-25T00:58:32.107Z,1.53
2017-12-25T01:00:59.588Z,2.17
2017-12-25T01:03:27.081Z,2.10
2017-12-25T01:05:54.565Z,2.00
2017-12-25T01:08:22.087Z,1.63
2017-12-25T01:10:49.568Z,1.83
2017-12-25T01:13:17.063Z,1.60
2017-12-25T01:15:44.556Z,2.00
2017-12-25T01:18:12.064Z,2.03
2017-12-25T01:20:39.543Z,1.63
2017-12-25T01:23:07.044Z,1.67
2017-12-25T01:25:34.544Z,1.63
2017-12-25T01:28:02.064Z,1.97
2017-12-25T01:30:30.314Z,1.80
2017-12-25T01:32:57.815Z,3.87
2017-12-25T01:35:25.320Z,1.90
2017-12-25T01:37:52.803Z,1.43
2017-12-25T01:40:20.307Z,1.73
2017-12-25T01:42:47.787Z,1.60
2017-12-25T01:45:15.291Z,1.80
2017-12-25T01:47:42.775Z,1.57
2017-12-25T01:50:10.272Z,1.30
2017-12-25T01:52:37.834Z,2.53
2017-12-25T01:55:06.280Z,5.07
2017-12-25T01:57:42.419Z,1.70
2017-12-25T02:00:21.705Z,2.33
2017-12-25T02:02:59.663Z,1.60
2017-12-25T02:05:30.035Z,1.47
2017-12-25T02:08:05.480Z,4.60
2017-12-25T02:10:32.983Z,1.30
2017-12-25T02:13:01.240Z,1.37
2017-12-25T02:15:28.743Z,1.33
2017-12-25T02:17:56.988Z,1.67
2017-12-25T02:20:24.486Z,2.57
2017-12-25T02:22:51.956Z,1.50
2017-12-25T02:25:19.472Z,1.20
2017-12-25T02:27:46.947Z,3.20
2017-12-25T02:30:14.476Z,2.23
2017-12-25T02:32:42.736Z,1.40
2017-12-25T02:35:10.231Z,1.40
2017-12-25T02:37:38.647Z,1.60
2017-12-25T02:40:06.162Z,4.57
2017-12-25T02:42:33.640Z,1.33
2017-12-25T02:45:01.132Z,2.03
2017-12-25T02:47:29.374Z,1.93
2017-12-25T02:49:56.862Z,1.20
2017-12-25T02:52:24.370Z,2.10
2017-12-25T02:54:52.624Z,1.10
2017-12-25T02:57:20.117Z,1.17
2017-12-25T02:59:47.604Z,3.33
2017-12-25T03:02:15.879Z,0.80
2017-12-25T03:04:44.135Z,0.80
2017-12-25T03:07:11.644Z,1.63
2017-12-25T03:09:39.891Z,1.50
2017-12-25T03:12:07.392Z,0.80
2017-12-25T03:14:34.880Z,1.90
2017-12-25T03:17:02.401Z,1.00
2017-12-25T03:19:29.891Z,0.77
2017-12-25T03:21:57.391Z,0.80
2017-12-25T03:24:25.643Z,1.23
2017-12-25T03:26:53.140Z,0.80
2017-12-25T03:29:21.404Z,1.40
2017-12-25T03:31:48.902Z,1.57
2017-12-25T03:34:17.159Z,1.00
2017-12-25T03:36:44.671Z,1.47
2017-12-25T03:39:12.156Z,1.47
2017-12-25T03:41:40.452Z,1.50
2017-12-25T03:44:07.976Z,0.60
2017-12-25T03:46:36.264Z,3.17
2017-12-25T03:49:03.748Z,1.33
2017-12-25T03:51:31.996Z,1.33
2017-12-25T03:53:59.499Z,0.80
2017-12-25T03:56:27.753Z,1.20
2017-12-25T03:58:55.372Z,0.70
2017-12-25T04:01:22.851Z,1.40
2017-12-25T04:03:50.359Z,1.13
2017-12-25T04:06:17.836Z,1.10
2017-12-25T04:08:45.348Z,0.70
2017-12-25T04:11:13.591Z,1.03
2017-12-25T04:13:41.097Z,1.10
2017-12-25T04:16:09.343Z,0.60
2017-12-25T04:18:36.851Z,0.83
2017-12-25T04:21:05.102Z,1.03
2017-12-25T04:23:32.615Z,0.47
2017-12-25T04:26:00.875Z,0.50
2017-12-25T04:28:28.367Z,0.77
2017-12-25T04:30:55.842Z,2.73
2017-12-25T04:33:24.460Z,2.00
2017-12-25T04:35:51.948Z,1.17
2017-12-25T04:38:19.451Z,1.17
2017-12-25T04:40:46.931Z,1.07
2017-12-25T04:43:14.424Z,0.60
2017-12-25T04:45:42.663Z,0.70
2017-12-25T04:48:10.136Z,1.50
2017-12-25T04:50:37.632Z,0.50
2017-12-25T04:53:05.106Z,1.00
2017-12-25T04:55:32.603Z,0.70
2017-12-25T04:58:00.351Z,3.80
2017-12-25T05:00:27.852Z,0.77
2017-12-25T05:02:55.324Z,1.10
2017-12-25T05:05:22.812Z,0.40
2017-12-25T05:07:56.447Z,0.70
2017-12-25T05:10:23.947Z,0.77
2017-12-25T05:12:51.423Z,3.73
2017-12-25T05:15:19.689Z,1.97
2017-12-25T05:17:47.167Z,1.10
2017-12-25T05:20:14.664Z,2.30
2017-12-25T05:22:42.935Z,2.87
2017-12-25T05:25:10.424Z,2.50
2017-12-25T05:27:38.780Z,1.47
2017-12-25T05:30:06.271Z,1.57
2017-12-25T05:32:33.752Z,1.27
2017-12-25T05:35:02.013Z,1.60
2017-12-25T05:37:29.488Z,1.23
2017-12-25T05:39:57.010Z,1.57
2017-12-25T05:42:24.489Z,1.10
2017-12-25T05:44:52.761Z,1.07
2017-12-25T05:47:20.240Z,1.37
2017-12-25T05:49:47.728Z,1.23
2017-12-25T05:52:15.232Z,1.30
2017-12-25T05:54:42.712Z,1.33
2017-12-25T05:57:10.979Z,0.90
2017-12-25T05:59:38.464Z,1.57
2017-12-25T06:02:05.959Z,0.60
2017-12-25T06:04:33.442Z,0.60
2017-12-25T06:07:00.937Z,0.60
2017-12-25T06:09:28.415Z,1.50
2017-12-25T06:11:55.916Z,1.23
2017-12-25T06:14:24.170Z,0.87
2017-12-25T06:16:51.668Z,0.60
2017-12-25T06:19:19.143Z,0.50
2017-12-25T06:21:46.647Z,0.90
2017-12-25T06:24:14.129Z,0.67
2017-12-25T06:26:42.395Z,0.57
2017-12-25T06:29:09.912Z,0.70
2017-12-25T06:31:37.416Z,1.10
2017-12-25T06:34:05.659Z,1.70
2017-12-25T06:36:33.180Z,0.60
2017-12-25T06:39:01.428Z,1.53
2017-12-25T06:41:28.952Z,0.50
2017-12-25T06:43:56.428Z,0.70
2017-12-25T06:46:23.931Z,1.00
2017-12-25T06:48:51.413Z,1.90
2017-12-25T06:51:18.885Z,1.00
2017-12-25T06:53:46.395Z,0.70
2017-12-25T06:56:14.647Z,0.67
2017-12-25T06:58:42.172Z,3.27
2017-12-25T07:01:09.643Z,0.97
2017-12-25T07:03:37.136Z,1.67
2017-12-25T07:06:04.609Z,0.90
2017-12-25T07:08:32.116Z,0.80
2017-12-25T07:11:00.368Z,2.20
2017-12-25T07:13:27.862Z,1.70
2017-12-25T07:15:55.340Z,0.60
2017-12-25T07:18:22.827Z,0.60
2017-12-25T07:20:51.073Z,2.47
2017-12-25T07:23:18.571Z,0.73
2017-12-25T07:25:46.052Z,0.80
2017-12-25T07:28:14.316Z,1.40
2017-12-25T07:30:41.791Z,1.70
2017-12-25T07:33:09.293Z,1.13
2017-12-25T07:35:37.559Z,0.67
2017-12-25T07:38:05.842Z,1.00
2017-12-25T07:40:33.330Z,0.90
2017-12-25T07:43:01.871Z,0.40
2017-12-25T07:45:29.379Z,0.67
2017-12-25T07:47:57.680Z,1.10
2017-12-25T07:50:25.151Z,3.33
2017-12-25T07:52:53.395Z,0.40
2017-12-25T07:55:20.896Z,0.57
2017-12-25T07:57:48.384Z,0.90
2017-12-25T08:00:15.956Z,1.10
2017-12-25T08:02:43.407Z,1.47
2017-12-25T08:05:10.912Z,2.30
2017-12-25T08:07:38.480Z,0.50
2017-12-25T08:10:05.988Z,0.70
2017-12-25T08:12:33.464Z,0.43
2017-12-25T08:15:00.969Z,1.13
2017-12-25T08:17:29.212Z,0.70
2017-12-25T08:19:56.712Z,0.97
2017-12-25T08:22:24.983Z,0.87
2017-12-25T08:24:52.479Z,0.40
2017-12-25T08:27:20.731Z,2.10
2017-12-25T08:29:48.255Z,1.10
2017-12-25T08:32:15.751Z,0.80
2017-12-25T08:34:43.252Z,1.83
2017-12-25T08:37:10.727Z,0.87
2017-12-25T08:39:38.220Z,1.93
2017-12-25T08:42:06.477Z,2.30
2017-12-25T08:44:33.971Z,2.20
2017-12-25T08:47:01.450Z,2.43
2017-12-25T08:49:29.780Z,1.43
2017-12-25T08:51:57.280Z,1.63
2017-12-25T08:54:24.752Z,1.33
2017-12-25T08:56:52.245Z,1.97
2017-12-25T08:59:20.502Z,88.60
2017-12-25T09:01:47.999Z,2.30
2017-12-25T09:04:15.476Z,5.50
2017-12-25T09:06:43.744Z,3.83
2017-12-25T09:09:11.237Z,2.27
2017-12-25T09:11:39.512Z,2.50
2017-12-25T09:14:07.006Z,2.60
2017-12-25T09:16:34.520Z,2.37
2017-12-25T09:19:02.003Z,1.53
2017-12-25T09:21:29.507Z,4.30
2017-12-25T09:23:57.744Z,2.60
2017-12-25T09:26:32.221Z,1.23
2017-12-25T09:28:59.780Z,1.10
2017-12-25T09:31:27.280Z,1.07
2017-12-25T09:33:54.761Z,0.57
2017-12-25T09:36:22.278Z,0.70
2017-12-25T09:38:49.760Z,0.53
2017-12-25T09:41:17.251Z,1.97
2017-12-25T09:43:45.498Z,0.83
2017-12-25T09:46:12.998Z,1.37
2017-12-25T09:48:40.478Z,1.23
2017-12-25T09:51:08.747Z,1.10
2017-12-25T09:53:36.352Z,2.87
2017-12-25T09:56:03.853Z,0.97
2017-12-25T09:58:31.359Z,2.13
2017-12-25T10:00:58.831Z,2.03
2017-12-25T10:03:26.336Z,1.30
2017-12-25T10:05:53.827Z,1.50
2017-12-25T10:08:21.319Z,1.97
2017-12-25T10:10:48.795Z,2.50
2017-12-25T10:16:04.640Z,4.63
2017-12-25T10:18:32.139Z,3.00
2017-12-25T10:21:00.787Z,2.43
2017-12-25T10:23:28.279Z,1.67
2017-12-25T10:25:55.752Z,1.70
2017-12-25T10:28:23.267Z,2.93
2017-12-25T10:30:50.737Z,2.30
2017-12-25T10:33:18.248Z,4.03
2017-12-25T10:35:45.748Z,3.00
2017-12-25T10:38:14.019Z,3.80
2017-12-25T10:40:41.526Z,3.00
2017-12-25T10:43:09.031Z,2.50
2017-12-25T10:45:36.512Z,4.43
2017-12-25T10:48:04.020Z,2.90
2017-12-25T10:50:32.272Z,2.63
2017-12-25T10:52:59.770Z,2.20
2017-12-25T10:55:28.025Z,5.20
2017-12-25T10:57:55.535Z,2.53
2017-12-25T11:00:29.457Z,2.30
2017-12-25T11:02:57.754Z,5.50
2017-12-25T11:05:29.250Z,6.50
2017-12-25T11:07:56.728Z,3.07
2017-12-25T11:10:24.228Z,3.47
2017-12-25T11:12:51.711Z,7.00
2017-12-25T11:15:19.205Z,2.90
2017-12-25T11:17:46.695Z,2.40
2017-12-25T11:20:14.201Z,3.57
2017-12-25T11:22:41.684Z,3.97
2017-12-25T11:25:09.176Z,6.07
2017-12-25T11:27:37.420Z,5.57
2017-12-25T11:30:04.926Z,7.90
2017-12-25T11:32:33.188Z,5.20
2017-12-25T11:35:00.691Z,4.43
2017-12-25T11:37:29.001Z,4.67
2017-12-25T11:39:56.503Z,5.37
2017-12-25T11:42:23.988Z,7.63
2017-12-25T11:44:51.515Z,6.73
2017-12-25T11:47:19.006Z,4.83
2017-12-25T11:49:46.508Z,4.13
2017-12-25T11:52:13.980Z,3.93
2017-12-25T11:54:41.494Z,4.57
2017-12-25T11:57:08.976Z,3.93
2017-12-25T11:59:36.499Z,5.67
2017-12-25T12:02:19.603Z,6.30
2017-12-25T12:04:47.119Z,10.33
2017-12-25T12:07:15.372Z,13.90
2017-12-25T12:09:42.857Z,9.20
2017-12-25T12:12:10.350Z,8.03
2017-12-25T12:14:38.593Z,7.67
2017-12-25T12:17:06.092Z,8.50
2017-12-25T12:19:33.568Z,7.93
2017-12-25T12:22:01.143Z,9.80
2017-12-25T12:24:29.401Z,9.70
2017-12-25T12:26:56.902Z,10.90
2017-12-25T12:29:25.160Z,8.33
2017-12-25T12:31:52.671Z,10.50
2017-12-25T12:34:20.159Z,12.07
2017-12-25T12:36:47.670Z,13.20
2017-12-25T12:39:15.159Z,16.17
2017-12-25T12:41:42.663Z,12.00
2017-12-25T12:44:10.155Z,12.93
2017-12-25T12:46:37.668Z,16.20
2017-12-25T12:49:05.164Z,16.23
2017-12-25T12:51:33.436Z,20.57
2017-12-25T12:54:01.707Z,18.73
2017-12-25T12:56:29.211Z,19.70
2017-12-25T12:58:57.480Z,19.07
2017-12-25T13:01:24.996Z,18.30
2017-12-25T13:03:52.487Z,19.80
2017-12-25T13:06:19.998Z,17.60
2017-12-25T13:08:47.503Z,16.70
2017-12-25T13:11:14.996Z,17.70
2017-12-25T13:13:42.491Z,21.37
2017-12-25T13:16:10.001Z,18.80
2017-12-25T13:18:37.528Z,18.53
2017-12-25T13:21:05.024Z,18.13
2017-12-25T13:23:33.291Z,19.00
2017-12-25T13:26:01.212Z,21.47
2017-12-25T13:28:28.732Z,20.00
2017-12-25T13:30:56.219Z,20.20
2017-12-25T13:33:23.732Z,20.30
2017-12-25T13:35:51.232Z,21.37
2017-12-25T13:38:18.774Z,24.03
2017-12-25T13:40:46.256Z,21.33
2017-12-25T13:43:13.771Z,21.33
2017-12-25T13:45:42.032Z,21.30
2017-12-25T13:48:09.532Z,21.30
2017-12-25T13:50:37.809Z,18.87
2017-12-25T13:53:05.325Z,21.20
2017-12-25T13:55:32.854Z,26.90
2017-12-25T13:58:00.377Z,21.80
2017-12-25T14:00:27.864Z,24.27
2017-12-25T14:02:55.375Z,22.17
2017-12-25T14:05:22.868Z,22.03
2017-12-25T14:07:50.383Z,22.47
2017-12-25T14:10:17.872Z,23.67
2017-12-25T14:12:45.356Z,21.00
2017-12-25T14:15:12.876Z,24.53
2017-12-25T14:17:40.356Z,24.17
2017-12-25T14:20:07.875Z,23.77
2017-12-25T14:22:36.136Z,22.47
2017-12-25T14:25:03.643Z,20.77
2017-12-25T14:27:31.904Z,22.83
2017-12-25T14:29:59.416Z,25.77
2017-12-25T14:32:26.912Z,21.77
2017-12-25T14:34:54.416Z,19.13
2017-12-25T14:37:21.895Z,20.20
2017-12-25T14:39:49.396Z,23.70
2017-12-25T14:42:16.888Z,20.77
2017-12-25T14:44:44.400Z,24.20
2017-12-25T14:47:11.883Z,21.47
2017-12-25T14:49:40.186Z,21.87
2017-12-25T14:52:07.696Z,20.43
2017-12-25T14:54:35.203Z,19.40
2017-12-25T14:57:02.704Z,21.83
2017-12-25T14:59:30.219Z,21.03
2017-12-25T15:01:57.699Z,20.73
2017-12-25T15:04:25.199Z,23.53
2017-12-25T15:06:53.446Z,19.23
2017-12-25T15:09:20.931Z,22.80
2017-12-25T15:11:48.443Z,19.43
2017-12-25T15:14:15.933Z,20.40
2017-12-25T15:16:43.448Z,23.23
2017-12-25T15:19:10.936Z,18.00
2017-12-25T15:21:39.212Z,17.07
2017-12-25T15:24:06.696Z,20.73
2017-12-25T15:26:34.959Z,22.07
2017-12-25T15:29:02.453Z,24.17
2017-12-25T15:31:30.760Z,24.30
2017-12-25T15:33:58.257Z,24.53
2017-12-25T15:36:25.794Z,22.50
2017-12-25T15:38:53.279Z,24.97
2017-12-25T15:41:20.785Z,23.43
2017-12-25T15:43:48.387Z,21.97
2017-12-25T15:46:16.667Z,22.20
2017-12-25T15:48:44.168Z,21.00
2017-12-25T15:51:11.679Z,19.03
2017-12-25T15:53:39.171Z,21.03
2017-12-25T15:56:06.685Z,18.53
2017-12-25T15:58:34.166Z,21.20
2017-12-25T16:01:01.680Z,21.23
2017-12-25T16:03:29.165Z,19.77
2017-12-25T16:05:56.647Z,26.20
2017-12-25T16:08:24.915Z,22.10
2017-12-25T16:10:52.397Z,22.43
2017-12-25T16:13:20.733Z,22.20
2017-12-25T16:15:48.228Z,22.93
2017-12-25T16:18:15.752Z,22.70
2017-12-25T16:20:43.228Z,18.53
2017-12-25T16:23:10.763Z,19.10
2017-12-25T16:25:38.252Z,19.13
2017-12-25T16:28:06.515Z,16.33
2017-12-25T16:30:33.995Z,16.60
2017-12-25T16:33:01.508Z,13.70
2017-12-25T16:35:28.999Z,18.80
2017-12-25T16:37:56.519Z,17.93
2017-12-25T16:40:24.772Z,23.83
2017-12-25T16:42:52.289Z,11.43
2017-12-25T16:45:19.763Z,10.23
2017-12-25T16:47:47.255Z,9.77
2017-12-25T16:50:14.748Z,9.83
2017-12-25T16:52:42.252Z,11.00
2017-12-25T16:55:10.500Z,10.47
2017-12-25T16:57:38.004Z,9.10
2017-12-25T17:00:06.249Z,9.13
2017-12-25T17:02:33.751Z,8.93
2017-12-25T17:05:01.240Z,19.63
2017-12-25T17:07:29.534Z,13.23
2017-12-25T17:09:57.788Z,9.00
2017-12-25T17:12:25.265Z,9.67
2017-12-25T17:14:52.768Z,11.03
2017-12-25T17:17:21.027Z,10.90
2017-12-25T17:19:48.540Z,10.93
2017-12-25T17:22:16.031Z,12.47
2017-12-25T17:24:43.539Z,13.97
2017-12-25T17:27:11.053Z,14.70
2017-12-25T17:29:38.555Z,24.73
2017-12-25T17:32:06.042Z,20.90
2017-12-25T17:34:33.563Z,18.93
2017-12-25T17:37:01.056Z,26.37
2017-12-25T17:39:28.563Z,22.00
2017-12-25T17:41:56.047Z,19.87
2017-12-25T17:44:24.317Z,19.73
2017-12-25T17:46:51.817Z,27.37
2017-12-25T17:49:20.111Z,23.23
2017-12-25T17:51:47.595Z,25.40
2017-12-25T17:54:15.099Z,27.83
2017-12-25T17:56:42.587Z,26.67
2017-12-25T17:59:11.027Z,21.40
2017-12-25T18:01:38.521Z,22.50
2017-12-25T18:04:06.028Z,23.30
2017-12-25T18:06:33.512Z,21.90
2017-12-25T18:09:01.792Z,20.33
2017-12-25T18:11:30.047Z,21.37
2017-12-25T18:13:57.539Z,23.40
2017-12-25T18:16:25.041Z,28.60
2017-12-25T18:18:52.528Z,28.10
2017-12-25T18:21:20.060Z,22.23
2017-12-25T18:23:48.322Z,23.37
2017-12-25T18:26:15.843Z,26.30
2017-12-25T18:28:43.335Z,24.53
2017-12-25T18:31:10.848Z,28.53
2017-12-25T18:33:39.148Z,23.73
2017-12-25T18:36:06.632Z,29.97
2017-12-25T18:38:34.889Z,23.57
2017-12-25T18:41:02.431Z,21.50
2017-12-25T18:43:29.923Z,21.90
2017-12-25T18:45:57.432Z,23.63
2017-12-25T18:48:25.695Z,23.50
2017-12-25T18:50:53.203Z,25.67
2017-12-25T18:53:20.723Z,24.00
2017-12-25T18:55:48.243Z,21.33
2017-12-25T18:58:15.733Z,27.97
2017-12-25T19:00:43.240Z,23.57
2017-12-25T19:03:10.725Z,23.20
2017-12-25T19:05:38.227Z,27.77
2017-12-25T19:08:05.716Z,23.17
2017-12-25T19:10:33.224Z,25.47
2017-12-25T19:13:00.732Z,24.67
2017-12-25T19:15:28.227Z,22.67
2017-12-25T19:17:55.752Z,29.20
2017-12-25T19:20:24.007Z,24.40
2017-12-25T19:22:51.517Z,24.80
2017-12-25T19:25:19.770Z,24.50
2017-12-25T19:27:47.283Z,24.83
2017-12-25T19:30:14.789Z,27.07
2017-12-25T19:32:42.305Z,27.40
2017-12-25T19:35:09.788Z,26.23
2017-12-25T19:37:38.056Z,29.37
2017-12-25T19:40:05.540Z,28.17
2017-12-25T19:42:33.811Z,27.50
2017-12-25T19:45:01.304Z,27.23
2017-12-25T19:47:28.819Z,27.47
2017-12-25T19:49:56.392Z,29.20
2017-12-25T19:52:23.907Z,27.30
2017-12-25T19:54:52.163Z,27.37
2017-12-25T19:57:19.659Z,31.27
2017-12-25T19:59:47.144Z,27.93
2017-12-25T20:02:15.420Z,27.67
2017-12-25T20:04:42.915Z,29.10
2017-12-25T20:07:10.399Z,32.33
2017-12-25T20:09:37.912Z,29.53
2017-12-25T20:12:05.391Z,27.20
2017-12-25T20:14:32.893Z,29.30
2017-12-25T20:17:00.389Z,28.90
2017-12-25T20:19:27.903Z,26.70
2017-12-25T20:21:55.391Z,29.90
2017-12-25T20:24:23.674Z,27.20
2017-12-25T20:26:51.972Z,27.00
2017-12-25T20:29:19.459Z,29.70
2017-12-25T20:31:46.947Z,25.60
2017-12-25T20:34:14.456Z,30.80
2017-12-25T20:36:41.947Z,26.60
2017-12-25T20:39:10.228Z,27.93
2017-12-25T20:41:37.720Z,29.63
2017-12-25T20:44:05.984Z,29.27
2017-12-25T20:46:33.475Z,30.70
2017-12-25T20:49:01.762Z,27.50
2017-12-25T20:51:29.255Z,25.50
2017-12-25T20:53:56.767Z,29.17
2017-12-25T20:56:24.254Z,27.60
2017-12-25T20:58:51.768Z,28.80
2017-12-25T21:01:19.251Z,28.80
2017-12-25T21:03:46.769Z,32.10
2017-12-25T21:06:15.027Z,30.87
2017-12-25T21:08:42.524Z,28.43
2017-12-25T21:11:10.010Z,29.03
2017-12-25T21:13:38.297Z,25.10
2017-12-25T21:16:06.554Z,33.23
2017-12-25T21:18:34.071Z,31.97
2017-12-25T21:21:01.576Z,32.80
2017-12-25T21:23:29.103Z,27.67
2017-12-25T21:25:57.376Z,27.80
2017-12-25T21:28:25.632Z,31.13
2017-12-25T21:30:53.140Z,30.73
2017-12-25T21:33:21.389Z,29.20
2017-12-25T21:35:48.911Z,28.00
2017-12-25T21:38:16.397Z,31.87
2017-12-25T21:40:43.895Z,28.43
2017-12-25T21:43:11.393Z,28.93
2017-12-25T21:45:38.916Z,28.97
2017-12-25T21:48:06.392Z,29.77
2017-12-25T21:50:33.895Z,28.60
2017-12-25T21:53:01.381Z,31.23
2017-12-25T21:55:29.648Z,32.30
2017-12-25T21:57:57.137Z,33.83
2017-12-25T22:00:25.411Z,31.40
2017-12-25T22:02:52.888Z,34.57
2017-12-25T22:05:20.399Z,29.10
2017-12-25T22:07:47.892Z,31.10
2017-12-25T22:10:15.404Z,26.77
2017-12-25T22:12:42.892Z,26.53
2017-12-25T22:15:11.145Z,26.40
2017-12-25T22:17:38.652Z,26.27
2017-12-25T22:20:06.901Z,32.07
2017-12-25T22:22:34.441Z,33.00
2017-12-25T22:25:01.926Z,30.37
2017-12-25T22:27:29.423Z,32.53
2017-12-25T22:29:56.903Z,29.80
2017-12-25T22:32:24.412Z,34.23
2017-12-25T22:34:51.896Z,33.07
2017-12-25T22:37:19.395Z,31.40
2017-12-25T22:39:46.871Z,32.30
2017-12-25T22:42:14.377Z,37.80
2017-12-25T22:44:41.878Z,35.80
2017-12-25T22:47:09.387Z,34.00
2017-12-25T22:49:36.876Z,32.23
2017-12-25T22:52:05.140Z,33.90
2017-12-25T22:54:32.624Z,33.87
2017-12-25T22:57:00.133Z,31.60
2017-12-25T22:59:27.611Z,34.13
2017-12-25T23:01:55.119Z,36.20
2017-12-25T23:04:22.595Z,34.17
2017-12-25T23:06:50.100Z,30.57
2017-12-25T23:09:17.576Z,37.10
2017-12-25T23:11:45.068Z,34.33
2017-12-25T23:14:12.572Z,31.27
2017-12-25T23:16:40.060Z,34.97
2017-12-25T23:19:07.565Z,31.67
2017-12-25T23:21:35.051Z,30.93
2017-12-25T23:24:02.551Z,33.83
2017-12-25T23:26:30.044Z,40.40
2017-12-25T23:28:58.307Z,39.37
2017-12-25T23:31:25.787Z,33.93
2017-12-25T23:33:53.292Z,31.87
2017-12-25T23:36:20.784Z,38.30
2017-12-25T23:38:48.286Z,34.87
2017-12-25T23:41:15.778Z,31.00
2017-12-25T23:43:44.052Z,35.70
2017-12-25T23:46:11.543Z,31.47
2017-12-25T23:48:39.812Z,32.50
2017-12-25T23:51:07.296Z,32.27
2017-12-25T23:53:35.559Z,31.67
2017-12-25T23:56:03.049Z,31.87
2017-12-25T23:58:30.646Z,30.40
